Terminal Aerodrome Forecast
Issued by NWS

Home | Current Version | Previous Version | Text Only | Print | Product List | Glossary On
Versions: 1 2 3 4 5 6 7 8 9 10 11 12
000
FTUS45 KRIW 301700
TAFWRL
TAF
KWRL 301720Z 3018/3118 18010KT P6SM SCT110
     FM302000 23015G25KT P6SM VCTS SCT090CB BKN110
     FM302300 33017G28KT P6SM VCTS SCT090CB BKN100
     FM310200 35009KT P6SM VCTS BKN070CB
     FM310400 30006KT P6SM VCSH SCT050 BKN090
     FM311200 35008KT P6SM VCSH SCT070 BKN100=

USA.gov is the U.S. government's official web portal to all federal, state and local government web resources and services.